Terminal Aerodrome Forecast
Issued by NWS

Home | Current Version | Previous Version | Text Only | Print | Product List | Glossary On
Versions: 1 2 3 4 5 6 7 8 9 10 11 12 13
000
FTUS45 KGGW 230520
TAFSDY
TAF
KSDY 230520Z 2306/2406 12011KT P6SM VCTS SCT100CB WS020/15040KT
     FM231000 20011KT P6SM VCTS SCT100CB
     FM231200 28009KT P6SM SCT130
     FM231500 28017G28KT P6SM SCT200
     FM240300 30009KT P6SM FEW250=

USA.gov is the U.S. government's official web portal to all federal, state and local government web resources and services.